sensor_id;sensor_type;location;lat;lon;timestamp;pressure;altitude;pressure_sealevel;temperature;humidity
79285;BME280;68734;50.452;11.636;2023-05-07T00:01:38;95758.63;;;8.58;91.63
79285;BME280;68734;50.452;11.636;2023-05-07T00:04:04;95749.31;;;8.49;91.65
79285;BME280;68734;50.452;11.636;2023-05-07T00:06:33;95757.16;;;8.51;91.55
79285;BME280;68734;50.452;11.636;2023-05-07T00:08:58;95755.19;;;8.46;91.93
79285;BME280;68734;50.452;11.636;2023-05-07T00:11:25;95751.94;;;8.44;92.07
79285;BME280;68734;50.452;11.636;2023-05-07T00:13:51;95756.13;;;8.40;92.04
79285;BME280;68734;50.452;11.636;2023-05-07T00:16:16;95749.59;;;8.36;92.26
79285;BME280;68734;50.452;11.636;2023-05-07T00:18:42;95746.81;;;8.31;92.27
79285;BME280;68734;50.452;11.636;2023-05-07T00:21:10;95740.94;;;8.34;92.06
79285;BME280;68734;50.452;11.636;2023-05-07T00:23:36;95757.91;;;8.34;91.92
79285;BME280;68734;50.452;11.636;2023-05-07T00:26:01;95751.38;;;8.30;91.84
79285;BME280;68734;50.452;11.636;2023-05-07T00:28:29;95752.75;;;8.33;92.07
79285;BME280;68734;50.452;11.636;2023-05-07T00:30:56;95751.94;;;8.32;92.07
79285;BME280;68734;50.452;11.636;2023-05-07T00:33:22;95754.50;;;8.39;91.95
79285;BME280;68734;50.452;11.636;2023-05-07T00:35:48;95750.28;;;8.43;91.73
79285;BME280;68734;50.452;11.636;2023-05-07T00:38:13;95750.31;;;8.31;91.88
79285;BME280;68734;50.452;11.636;2023-05-07T00:40:39;95760.72;;;8.28;91.78
79285;BME280;68734;50.452;11.636;2023-05-07T00:43:06;95767.66;;;8.24;91.95
79285;BME280;68734;50.452;11.636;2023-05-07T00:45:33;95758.34;;;8.14;92.23
79285;BME280;68734;50.452;11.636;2023-05-07T00:48:02;95746.09;;;8.07;92.26
79285;BME280;68734;50.452;11.636;2023-05-07T00:50:28;95752.19;;;8.02;92.58
79285;BME280;68734;50.452;11.636;2023-05-07T00:52:54;95758.63;;;8.01;92.51
79285;BME280;68734;50.452;11.636;2023-05-07T00:55:21;95758.63;;;8.01;92.52
79285;BME280;68734;50.452;11.636;2023-05-07T00:57:47;95754.19;;;7.95;92.51
79285;BME280;68734;50.452;11.636;2023-05-07T01:00:13;95755.50;;;7.92;92.57
79285;BME280;68734;50.452;11.636;2023-05-07T01:02:39;95757.50;;;7.85;92.76
79285;BME280;68734;50.452;11.636;2023-05-07T01:05:06;95758.69;;;7.77;93.01
79285;BME280;68734;50.452;11.636;2023-05-07T01:07:37;95752.16;;;7.73;93.18
79285;BME280;68734;50.452;11.636;2023-05-07T01:10:06;95752.16;;;7.73;93.27
79285;BME280;68734;50.452;11.636;2023-05-07T01:12:33;95750.53;;;7.72;93.21
79285;BME280;68734;50.452;11.636;2023-05-07T01:14:59;95745.50;;;7.76;92.88
79285;BME280;68734;50.452;11.636;2023-05-07T01:17:27;95746.31;;;7.76;92.97
79285;BME280;68734;50.452;11.636;2023-05-07T01:19:52;95750.03;;;7.75;92.87
79285;BME280;68734;50.452;11.636;2023-05-07T01:22:38;95744.19;;;7.78;92.45
79285;BME280;68734;50.452;11.636;2023-05-07T01:25:05;95745.81;;;7.79;92.69
79285;BME280;68734;50.452;11.636;2023-05-07T01:27:31;95743.25;;;7.85;92.37
79285;BME280;68734;50.452;11.636;2023-05-07T01:29:59;95736.00;;;7.73;92.82
79285;BME280;68734;50.452;11.636;2023-05-07T01:35:02;95749.22;;;7.75;92.77
79285;BME280;68734;50.452;11.636;2023-05-07T01:37:30;95744.34;;;7.72;92.61
79285;BME280;68734;50.452;11.636;2023-05-07T01:39:56;95754.38;;;7.76;92.63
79285;BME280;68734;50.452;11.636;2023-05-07T01:42:22;95740.94;;;7.76;92.46
79285;BME280;68734;50.452;11.636;2023-05-07T01:44:48;95743.03;;;7.74;92.40
79285;BME280;68734;50.452;11.636;2023-05-07T01:47:16;95748.88;;;7.71;92.67
79285;BME280;68734;50.452;11.636;2023-05-07T01:49:42;95747.03;;;7.72;92.44
79285;BME280;68734;50.452;11.636;2023-05-07T01:52:10;95755.56;;;7.69;92.73
79285;BME280;68734;50.452;11.636;2023-05-07T01:54:37;95751.25;;;7.68;92.67
79285;BME280;68734;50.452;11.636;2023-05-07T01:57:04;95762.22;;;7.66;92.63
79285;BME280;68734;50.452;11.636;2023-05-07T01:59:32;95746.56;;;7.63;92.68
79285;BME280;68734;50.452;11.636;2023-05-07T02:01:59;95749.38;;;7.68;92.58
79285;BME280;68734;50.452;11.636;2023-05-07T02:04:26;95749.38;;;7.68;92.56
79285;BME280;68734;50.452;11.636;2023-05-07T02:06:51;95735.47;;;7.59;92.64
79285;BME280;68734;50.452;11.636;2023-05-07T02:09:18;95748.22;;;7.64;92.80
79285;BME280;68734;50.452;11.636;2023-05-07T02:11:43;95750.91;;;7.64;92.76
79285;BME280;68734;50.452;11.636;2023-05-07T02:14:09;95747.63;;;7.62;92.63
79285;BME280;68734;50.452;11.636;2023-05-07T02:16:35;95756.28;;;7.64;92.78
79285;BME280;68734;50.452;11.636;2023-05-07T02:19:02;95742.81;;;7.64;92.64
79285;BME280;68734;50.452;11.636;2023-05-07T02:21:28;95749.16;;;7.58;92.77
79285;BME280;68734;50.452;11.636;2023-05-07T02:23:53;95756.16;;;7.59;92.87
79285;BME280;68734;50.452;11.636;2023-05-07T02:26:19;95746.94;;;7.55;92.88
79285;BME280;68734;50.452;11.636;2023-05-07T02:28:46;95748.31;;;7.57;92.99
79285;BME280;68734;50.452;11.636;2023-05-07T02:31:12;95744.81;;;7.57;93.07
79285;BME280;68734;50.452;11.636;2023-05-07T02:33:37;95745.03;;;7.55;93.02
79285;BME280;68734;50.452;11.636;2023-05-07T02:36:10;95740.03;;;7.59;92.96
79285;BME280;68734;50.452;11.636;2023-05-07T02:38:36;95728.09;;;7.55;93.15
79285;BME280;68734;50.452;11.636;2023-05-07T02:41:01;95733.50;;;7.55;93.06
79285;BME280;68734;50.452;11.636;2023-05-07T02:43:29;95729.63;;;7.51;93.38
79285;BME280;68734;50.452;11.636;2023-05-07T02:46:21;95735.00;;;7.51;93.63
79285;BME280;68734;50.452;11.636;2023-05-07T02:48:46;95732.81;;;7.48;93.57
79285;BME280;68734;50.452;11.636;2023-05-07T02:51:12;95732.34;;;7.39;93.77
79285;BME280;68734;50.452;11.636;2023-05-07T02:53:37;95738.66;;;7.45;93.69
79285;BME280;68734;50.452;11.636;2023-05-07T02:56:02;95744.03;;;7.45;93.70
79285;BME280;68734;50.452;11.636;2023-05-07T02:58:28;95748.94;;;7.48;93.64
79285;BME280;68734;50.452;11.636;2023-05-07T03:00:54;95757.09;;;7.53;92.93
79285;BME280;68734;50.452;11.636;2023-05-07T03:03:24;95759.91;;;7.58;92.78
79285;BME280;68734;50.452;11.636;2023-05-07T03:05:50;95747.50;;;7.57;92.80
79285;BME280;68734;50.452;11.636;2023-05-07T03:08:15;95742.25;;;7.62;92.70
79285;BME280;68734;50.452;11.636;2023-05-07T03:10:41;95739.56;;;7.62;92.55
79285;BME280;68734;50.452;11.636;2023-05-07T03:13:06;95750.53;;;7.61;92.97
79285;BME280;68734;50.452;11.636;2023-05-07T03:15:34;95747.38;;;7.64;92.70
79285;BME280;68734;50.452;11.636;2023-05-07T03:18:00;95741.19;;;7.63;92.54
79285;BME280;68734;50.452;11.636;2023-05-07T03:20:25;95736.28;;;7.60;92.76
79285;BME280;68734;50.452;11.636;2023-05-07T03:22:51;95742.34;;;7.55;93.05
79285;BME280;68734;50.452;11.636;2023-05-07T03:25:18;95738.28;;;7.53;93.13
79285;BME280;68734;50.452;11.636;2023-05-07T03:27:44;95744.81;;;7.57;93.13
79285;BME280;68734;50.452;11.636;2023-05-07T03:30:10;95732.81;;;7.48;93.17
79285;BME280;68734;50.452;11.636;2023-05-07T03:32:38;95738.66;;;7.45;93.48
79285;BME280;68734;50.452;11.636;2023-05-07T03:35:04;95743.66;;;7.41;93.48
79285;BME280;68734;50.452;11.636;2023-05-07T03:37:30;95738.88;;;7.43;93.49
79285;BME280;68734;50.452;11.636;2023-05-07T03:39:55;95739.69;;;7.44;93.37
79285;BME280;68734;50.452;11.636;2023-05-07T03:42:21;95742.63;;;7.42;93.35
79285;BME280;68734;50.452;11.636;2023-05-07T03:44:48;95750.22;;;7.45;93.30
79285;BME280;68734;50.452;11.636;2023-05-07T03:47:16;95742.88;;;7.41;93.26
79285;BME280;68734;50.452;11.636;2023-05-07T03:49:42;95740.41;;;7.39;93.23
79285;BME280;68734;50.452;11.636;2023-05-07T03:52:07;95751.06;;;7.46;93.29
79285;BME280;68734;50.452;11.636;2023-05-07T03:54:35;95745.19;;;7.49;93.24
79285;BME280;68734;50.452;11.636;2023-05-07T03:57:06;95746.34;;;7.53;92.98
79285;BME280;68734;50.452;11.636;2023-05-07T03:59:31;95754.53;;;7.58;92.40
79285;BME280;68734;50.452;11.636;2023-05-07T04:01:59;95752.31;;;7.55;92.67
79285;BME280;68734;50.452;11.636;2023-05-07T04:04:49;95763.41;;;7.58;92.75
79285;BME280;68734;50.452;11.636;2023-05-07T04:07:15;95758.38;;;7.62;92.67
79285;BME280;68734;50.452;11.636;2023-05-07T04:09:43;95758.25;;;7.57;92.23
79285;BME280;68734;50.452;11.636;2023-05-07T04:12:08;95760.84;;;7.52;92.39
79285;BME280;68734;50.452;11.636;2023-05-07T04:14:33;95758.84;;;7.47;93.05
79285;BME280;68734;50.452;11.636;2023-05-07T04:16:59;95768.44;;;7.43;93.09
79285;BME280;68734;50.452;11.636;2023-05-07T04:19:25;95748.69;;;7.37;93.21
79285;BME280;68734;50.452;11.636;2023-05-07T04:21:50;95756.88;;;7.43;93.15
79285;BME280;68734;50.452;11.636;2023-05-07T04:24:16;95764.81;;;7.49;92.89
79285;BME280;68734;50.452;11.636;2023-05-07T04:26:41;95762.59;;;7.46;92.91
79285;BME280;68734;50.452;11.636;2023-05-07T04:29:06;95765.38;;;7.51;92.83
79285;BME280;68734;50.452;11.636;2023-05-07T04:31:34;95772.53;;;7.46;92.67
79285;BME280;68734;50.452;11.636;2023-05-07T04:33:59;95762.25;;;7.43;92.63
79285;BME280;68734;50.452;11.636;2023-05-07T04:36:26;95774.88;;;7.54;92.65
79285;BME280;68734;50.452;11.636;2023-05-07T04:38:53;95774.03;;;7.42;92.36
79285;BME280;68734;50.452;11.636;2023-05-07T04:41:19;95773.34;;;7.46;92.53
79285;BME280;68734;50.452;11.636;2023-05-07T04:43:44;95774.41;;;7.45;92.21
79285;BME280;68734;50.452;11.636;2023-05-07T04:46:10;95783.16;;;7.52;92.09
79285;BME280;68734;50.452;11.636;2023-05-07T04:48:37;95784.78;;;7.42;92.04
79285;BME280;68734;50.452;11.636;2023-05-07T04:51:03;95776.72;;;7.42;92.48
79285;BME280;68734;50.452;11.636;2023-05-07T04:53:28;95785.84;;;7.41;92.17
79285;BME280;68734;50.452;11.636;2023-05-07T04:55:57;95777.31;;;7.44;92.41
79285;BME280;68734;50.452;11.636;2023-05-07T04:58:25;95788.66;;;7.46;92.13
79285;BME280;68734;50.452;11.636;2023-05-07T05:00:50;95795.66;;;7.47;91.91
79285;BME280;68734;50.452;11.636;2023-05-07T05:03:16;95795.31;;;7.43;91.87
79285;BME280;68734;50.452;11.636;2023-05-07T05:05:44;95803.16;;;7.45;91.64
79285;BME280;68734;50.452;11.636;2023-05-07T05:08:09;95810.50;;;7.37;91.90
79285;BME280;68734;50.452;11.636;2023-05-07T05:10:35;95812.50;;;7.42;91.87
79285;BME280;68734;50.452;11.636;2023-05-07T05:13:00;95819.84;;;7.47;91.92
79285;BME280;68734;50.452;11.636;2023-05-07T05:15:26;95818.34;;;7.51;91.89
79285;BME280;68734;50.452;11.636;2023-05-07T05:17:51;95811.78;;;7.47;91.84
79285;BME280;68734;50.452;11.636;2023-05-07T05:20:17;95810.84;;;7.53;91.74
79285;BME280;68734;50.452;11.636;2023-05-07T05:22:45;95812.03;;;7.45;91.95
79285;BME280;68734;50.452;11.636;2023-05-07T05:25:10;95809.34;;;7.45;92.00
79285;BME280;68734;50.452;11.636;2023-05-07T05:27:36;95817.16;;;7.47;91.94
79285;BME280;68734;50.452;11.636;2023-05-07T05:30:01;95826.28;;;7.46;92.16
79285;BME280;68734;50.452;11.636;2023-05-07T05:32:27;95811.78;;;7.47;92.03
79285;BME280;68734;50.452;11.636;2023-05-07T05:34:53;95829.44;;;7.43;92.19
79285;BME280;68734;50.452;11.636;2023-05-07T05:37:18;95827.91;;;7.47;92.28
79285;BME280;68734;50.452;11.636;2023-05-07T05:39:43;95824.28;;;7.53;91.76
79285;BME280;68734;50.452;11.636;2023-05-07T05:42:09;95828.16;;;7.57;91.71
79285;BME280;68734;50.452;11.636;2023-05-07T05:44:39;95825.69;;;7.55;91.55
79285;BME280;68734;50.452;11.636;2023-05-07T05:47:04;95822.91;;;7.38;92.75
79285;BME280;68734;50.452;11.636;2023-05-07T05:49:30;95824.88;;;7.31;93.15
79285;BME280;68734;50.452;11.636;2023-05-07T05:51:55;95826.75;;;7.31;93.62
79285;BME280;68734;50.452;11.636;2023-05-07T05:54:21;95825.34;;;7.28;93.25
79285;BME280;68734;50.452;11.636;2023-05-07T05:56:46;95829.56;;;7.24;93.15
79285;BME280;68734;50.452;11.636;2023-05-07T05:59:12;95836.69;;;7.30;92.97
79285;BME280;68734;50.452;11.636;2023-05-07T06:01:38;95829.06;;;7.27;92.72
79285;BME280;68734;50.452;11.636;2023-05-07T06:04:06;95824.88;;;7.31;92.54
79285;BME280;68734;50.452;11.636;2023-05-07T06:06:31;95830.25;;;7.31;92.73
79285;BME280;68734;50.452;11.636;2023-05-07T06:08:57;95824.41;;;7.34;92.59
79285;BME280;68734;50.452;11.636;2023-05-07T06:11:23;95832.34;;;7.41;92.51
79285;BME280;68734;50.452;11.636;2023-05-07T06:13:48;95830.97;;;7.50;91.99
79285;BME280;68734;50.452;11.636;2023-05-07T06:16:14;95821.50;;;7.48;92.04
79285;BME280;68734;50.452;11.636;2023-05-07T06:18:40;95814.59;;;7.28;92.45
79285;BME280;68734;50.452;11.636;2023-05-07T06:21:05;95819.03;;;7.34;92.31
79285;BME280;68734;50.452;11.636;2023-05-07T06:23:31;95831.66;;;7.46;92.25
79285;BME280;68734;50.452;11.636;2023-05-07T06:25:56;95829.09;;;7.51;91.03
79285;BME280;68734;50.452;11.636;2023-05-07T06:28:22;95832.00;;;7.49;91.02
79285;BME280;68734;50.452;11.636;2023-05-07T06:30:47;95835.16;;;7.58;91.06
79285;BME280;68734;50.452;11.636;2023-05-07T06:33:15;95835.41;;;7.56;91.41
79285;BME280;68734;50.452;11.636;2023-05-07T06:35:40;95847.78;;;7.69;90.81
79285;BME280;68734;50.452;11.636;2023-05-07T06:38:06;95846.94;;;7.81;90.04
79285;BME280;68734;50.452;11.636;2023-05-07T06:40:31;95846.38;;;7.78;89.79
79285;BME280;68734;50.452;11.636;2023-05-07T06:42:59;95855.16;;;7.74;90.14
79285;BME280;68734;50.452;11.636;2023-05-07T06:45:24;95854.00;;;7.70;89.92
79285;BME280;68734;50.452;11.636;2023-05-07T06:47:52;95853.16;;;7.69;89.92
79285;BME280;68734;50.452;11.636;2023-05-07T06:50:18;95853.16;;;7.69;90.05
79285;BME280;68734;50.452;11.636;2023-05-07T06:52:43;95848.34;;;7.71;90.07
79285;BME280;68734;50.452;11.636;2023-05-07T06:55:09;95858.53;;;7.69;90.01
79285;BME280;68734;50.452;11.636;2023-05-07T06:57:34;95858.53;;;7.69;89.81
79285;BME280;68734;50.452;11.636;2023-05-07T07:00:00;95861.78;;;7.71;89.58
79285;BME280;68734;50.452;11.636;2023-05-07T07:02:26;95857.25;;;7.60;89.90
79285;BME280;68734;50.452;11.636;2023-05-07T07:04:51;95858.78;;;7.56;90.20
79285;BME280;68734;50.452;11.636;2023-05-07T07:07:16;95857.34;;;7.65;89.76
79285;BME280;68734;50.452;11.636;2023-05-07T07:09:42;95854.78;;;7.70;89.26
79285;BME280;68734;50.452;11.636;2023-05-07T07:12:07;95859.22;;;7.76;88.91
79285;BME280;68734;50.452;11.636;2023-05-07T07:14:33;95856.53;;;7.76;88.95
79285;BME280;68734;50.452;11.636;2023-05-07T07:16:58;95858.50;;;7.93;87.97
79285;BME280;68734;50.452;11.636;2023-05-07T07:19:23;95863.44;;;7.96;87.61
79285;BME280;68734;50.452;11.636;2023-05-07T07:21:49;95855.22;;;8.03;87.13
79285;BME280;68734;50.452;11.636;2023-05-07T07:24:15;95853.56;;;8.02;86.72
79285;BME280;68734;50.452;11.636;2023-05-07T07:26:46;95861.91;;;7.88;86.84
79285;BME280;68734;50.452;11.636;2023-05-07T07:29:11;95865.28;;;7.95;87.20
79285;BME280;68734;50.452;11.636;2023-05-07T07:31:37;95870.06;;;8.05;87.01
79285;BME280;68734;50.452;11.636;2023-05-07T07:34:05;95866.75;;;8.27;85.39
79285;BME280;68734;50.452;11.636;2023-05-07T07:36:31;95862.06;;;8.34;85.37
79285;BME280;68734;50.452;11.636;2023-05-07T07:38:56;95873.75;;;8.28;85.10
79285;BME280;68734;50.452;11.636;2023-05-07T07:41:24;95874.75;;;8.10;86.15
79285;BME280;68734;50.452;11.636;2023-05-07T07:43:49;95872.84;;;8.22;85.50
79285;BME280;68734;50.452;11.636;2023-05-07T07:46:15;95871.28;;;8.38;84.90
79285;BME280;68734;50.452;11.636;2023-05-07T07:48:42;95873.84;;;8.56;84.24
79285;BME280;68734;50.452;11.636;2023-05-07T07:51:08;95872.88;;;8.63;83.17
79285;BME280;68734;50.452;11.636;2023-05-07T07:53:35;95874.09;;;9.01;82.35
79285;BME280;68734;50.452;11.636;2023-05-07T07:56:01;95877.66;;;8.89;82.33
79285;BME280;68734;50.452;11.636;2023-05-07T07:58:28;95871.97;;;9.03;81.91
79285;BME280;68734;50.452;11.636;2023-05-07T08:00:54;95869.88;;;9.38;80.42
79285;BME280;68734;50.452;11.636;2023-05-07T08:03:21;95872.91;;;9.59;80.14
79285;BME280;68734;50.452;11.636;2023-05-07T08:05:47;95873.44;;;9.95;78.92
79285;BME280;68734;50.452;11.636;2023-05-07T08:08:15;95883.69;;;10.15;77.17
79285;BME280;68734;50.452;11.636;2023-05-07T08:10:40;95880.09;;;10.09;76.93
79285;BME280;68734;50.452;11.636;2023-05-07T08:13:06;95883.00;;;9.86;77.62
79285;BME280;68734;50.452;11.636;2023-05-07T08:15:34;95879.53;;;9.68;78.89
79285;BME280;68734;50.452;11.636;2023-05-07T08:17:59;95877.50;;;9.97;77.13
79285;BME280;68734;50.452;11.636;2023-05-07T08:20:28;95871.63;;;9.84;76.88
79285;BME280;68734;50.452;11.636;2023-05-07T08:22:56;95885.22;;;9.72;78.09
79285;BME280;68734;50.452;11.636;2023-05-07T08:25:21;95885.88;;;9.62;78.13
79285;BME280;68734;50.452;11.636;2023-05-07T08:27:46;95891.22;;;9.57;79.38
79285;BME280;68734;50.452;11.636;2023-05-07T08:30:12;95890.38;;;9.73;78.15
79285;BME280;68734;50.452;11.636;2023-05-07T08:32:38;95882.09;;;9.97;77.26
79285;BME280;68734;50.452;11.636;2023-05-07T08:35:04;95886.13;;;10.16;76.05
79285;BME280;68734;50.452;11.636;2023-05-07T08:37:29;95884.84;;;10.41;75.23
79285;BME280;68734;50.452;11.636;2023-05-07T08:39:57;95888.50;;;10.52;75.38
79285;BME280;68734;50.452;11.636;2023-05-07T08:42:23;95887.00;;;10.88;73.35
79285;BME280;68734;50.452;11.636;2023-05-07T08:44:51;95897.72;;;11.32;71.85
79285;BME280;68734;50.452;11.636;2023-05-07T08:47:19;95897.34;;;11.18;72.62
79285;BME280;68734;50.452;11.636;2023-05-07T08:49:47;95905.84;;;11.65;70.95
79285;BME280;68734;50.452;11.636;2023-05-07T08:52:13;95888.75;;;11.00;72.72
79285;BME280;68734;50.452;11.636;2023-05-07T08:54:39;95883.03;;;11.23;72.55
79285;BME280;68734;50.452;11.636;2023-05-07T08:57:05;95888.38;;;11.18;71.57
79285;BME280;68734;50.452;11.636;2023-05-07T08:59:30;95892.34;;;11.37;70.51
79285;BME280;68734;50.452;11.636;2023-05-07T09:01:56;95896.19;;;11.42;70.80
79285;BME280;68734;50.452;11.636;2023-05-07T09:04:24;95895.78;;;11.60;70.56
79285;BME280;68734;50.452;11.636;2023-05-07T09:06:50;95901.19;;;11.60;69.45
79285;BME280;68734;50.452;11.636;2023-05-07T09:09:17;95888.94;;;11.85;69.25
79285;BME280;68734;50.452;11.636;2023-05-07T09:11:45;95898.50;;;11.60;69.86
79285;BME280;68734;50.452;11.636;2023-05-07T09:14:13;95891.16;;;11.55;70.09
79285;BME280;68734;50.452;11.636;2023-05-07T09:16:38;95896.72;;;11.76;69.65
79285;BME280;68734;50.452;11.636;2023-05-07T09:19:04;95893.16;;;11.70;71.05
79285;BME280;68734;50.452;11.636;2023-05-07T09:21:30;95895.38;;;11.78;70.62
79285;BME280;68734;50.452;11.636;2023-05-07T09:23:55;95884.41;;;11.58;70.98
79285;BME280;68734;50.452;11.636;2023-05-07T09:26:22;95894.19;;;11.64;71.13
79285;BME280;68734;50.452;11.636;2023-05-07T09:28:47;95892.56;;;11.95;70.31
79285;BME280;68734;50.452;11.636;2023-05-07T09:31:15;95893.63;;;12.37;70.54
79285;BME280;68734;50.452;11.636;2023-05-07T09:33:40;95890.38;;;12.40;67.91
79285;BME280;68734;50.452;11.636;2023-05-07T09:36:07;95892.28;;;12.40;69.35
79285;BME280;68734;50.452;11.636;2023-05-07T09:38:37;95875.06;;;12.13;68.35
79285;BME280;68734;50.452;11.636;2023-05-07T09:41:06;95888.56;;;12.08;69.59
79285;BME280;68734;50.452;11.636;2023-05-07T09:43:34;95883.13;;;11.33;71.91
79285;BME280;68734;50.452;11.636;2023-05-07T09:46:06;95886.06;;;11.59;71.33
79285;BME280;68734;50.452;11.636;2023-05-07T09:48:36;95897.16;;;11.95;70.76
79285;BME280;68734;50.452;11.636;2023-05-07T09:53:48;95892.50;;;11.53;72.36
79285;BME280;68734;50.452;11.636;2023-05-07T09:56:17;95891.41;;;11.22;73.28
79285;BME280;68734;50.452;11.636;2023-05-07T09:58:44;95886.13;;;11.37;72.72
79285;BME280;68734;50.452;11.636;2023-05-07T10:01:11;95896.19;;;11.42;71.34
79285;BME280;68734;50.452;11.636;2023-05-07T10:03:40;95895.16;;;11.48;71.34
79285;BME280;68734;50.452;11.636;2023-05-07T10:06:05;95889.25;;;11.56;71.94
79285;BME280;68734;50.452;11.636;2023-05-07T10:08:32;95882.41;;;11.81;71.33
79285;BME280;68734;50.452;11.636;2023-05-07T10:10:59;95881.03;;;12.15;70.57
79285;BME280;68734;50.452;11.636;2023-05-07T10:13:24;95887.06;;;12.28;69.66
79285;BME280;68734;50.452;11.636;2023-05-07T10:15:50;95890.16;;;11.99;71.96
79285;BME280;68734;50.452;11.636;2023-05-07T10:18:19;95883.38;;;12.49;68.68
79285;BME280;68734;50.452;11.636;2023-05-07T10:20:50;95878.00;;;12.60;68.93
79285;BME280;68734;50.452;11.636;2023-05-07T10:23:22;95877.44;;;12.57;67.17
79285;BME280;68734;50.452;11.636;2023-05-07T10:25:50;95876.34;;;12.58;67.76
79285;BME280;68734;50.452;11.636;2023-05-07T10:28:21;95868.22;;;12.53;68.35
79285;BME280;68734;50.452;11.636;2023-05-07T10:33:37;95884.50;;;12.69;69.18
79285;BME280;68734;50.452;11.636;2023-05-07T10:36:05;95872.13;;;12.88;68.08
79285;BME280;68734;50.452;11.636;2023-05-07T10:41:44;95884.06;;;12.92;67.82
79285;BME280;68734;50.452;11.636;2023-05-07T10:44:09;95873.94;;;12.57;68.28
79285;BME280;68734;50.452;11.636;2023-05-07T10:46:34;95885.66;;;12.78;68.50
79285;BME280;68734;50.452;11.636;2023-05-07T10:51:26;95891.59;;;12.80;68.98
79285;BME280;68734;50.452;11.636;2023-05-07T10:56:41;95880.22;;;12.78;68.02
79285;BME280;68734;50.452;11.636;2023-05-07T11:04:17;95860.41;;;12.67;68.42
79285;BME280;68734;50.452;11.636;2023-05-07T11:07:25;95865.28;;;12.65;68.43
79285;BME280;68734;50.452;11.636;2023-05-07T11:15:10;95874.31;;;12.91;68.48
79285;BME280;68734;50.452;11.636;2023-05-07T11:17:55;95875.94;;;12.87;67.58
79285;BME280;68734;50.452;11.636;2023-05-07T11:20:21;95864.50;;;12.75;67.49
79285;BME280;68734;50.452;11.636;2023-05-07T11:23:10;95875.69;;;12.99;67.84
79285;BME280;68734;50.452;11.636;2023-05-07T11:26:07;95868.41;;;13.15;67.68
79285;BME280;68734;50.452;11.636;2023-05-07T11:28:38;95873.47;;;12.91;66.87
79285;BME280;68734;50.452;11.636;2023-05-07T11:31:06;95873.22;;;12.87;67.62
79285;BME280;68734;50.452;11.636;2023-05-07T11:33:32;95858.59;;;12.93;67.71
79285;BME280;68734;50.452;11.636;2023-05-07T11:35:57;95880.78;;;12.80;67.44
79285;BME280;68734;50.452;11.636;2023-05-07T11:38:24;95873.69;;;12.69;67.37
79285;BME280;68734;50.452;11.636;2023-05-07T11:40:54;95875.59;;;12.78;67.99
79285;BME280;68734;50.452;11.636;2023-05-07T11:43:20;95880.78;;;12.85;66.75
79285;BME280;68734;50.452;11.636;2023-05-07T11:45:46;95879.75;;;13.02;66.18
79285;BME280;68734;50.452;11.636;2023-05-07T11:48:12;95873.25;;;13.18;66.88
79285;BME280;68734;50.452;11.636;2023-05-07T11:50:51;95869.00;;;13.48;66.78
79285;BME280;68734;50.452;11.636;2023-05-07T11:53:20;95852.13;;;13.25;65.00
79285;BME280;68734;50.452;11.636;2023-05-07T11:55:52;95871.66;;;13.22;65.74
79285;BME280;68734;50.452;11.636;2023-05-07T11:58:21;95865.09;;;13.03;65.81
79285;BME280;68734;50.452;11.636;2023-05-07T12:00:50;95867.25;;;13.01;65.07
79285;BME280;68734;50.452;11.636;2023-05-07T12:03:16;95866.22;;;13.17;65.75
79285;BME280;68734;50.452;11.636;2023-05-07T12:05:47;95867.63;;;13.35;65.63
79285;BME280;68734;50.452;11.636;2023-05-07T12:08:19;95873.84;;;13.25;64.75
79285;BME280;68734;50.452;11.636;2023-05-07T12:10:49;95866.53;;;13.31;65.52
79285;BME280;68734;50.452;11.636;2023-05-07T12:13:19;95879.22;;;13.20;65.78
79285;BME280;68734;50.452;11.636;2023-05-07T12:15:44;95862.75;;;13.42;65.42
79285;BME280;68734;50.452;11.636;2023-05-07T12:18:11;95872.22;;;13.45;64.58
79285;BME280;68734;50.452;11.636;2023-05-07T12:20:39;95865.16;;;13.74;63.69
79285;BME280;68734;50.452;11.636;2023-05-07T12:23:05;95856.50;;;13.31;64.74
79285;BME280;68734;50.452;11.636;2023-05-07T12:25:38;95875.44;;;13.26;64.94
79285;BME280;68734;50.452;11.636;2023-05-07T12:28:04;95859.75;;;13.44;65.44
79285;BME280;68734;50.452;11.636;2023-05-07T12:30:40;95866.81;;;13.55;64.02
79285;BME280;68734;50.452;11.636;2023-05-07T12:33:05;95856.50;;;13.36;64.26
79285;BME280;68734;50.452;11.636;2023-05-07T12:35:36;95886.34;;;13.36;65.06
79285;BME280;68734;50.452;11.636;2023-05-07T12:38:04;95872.78;;;13.42;64.75
79285;BME280;68734;50.452;11.636;2023-05-07T12:40:42;95877.66;;;13.45;65.89
79285;BME280;68734;50.452;11.636;2023-05-07T12:46:29;95870.88;;;13.68;64.82
79285;BME280;68734;50.452;11.636;2023-05-07T12:48:55;95871.41;;;13.80;64.57
79285;BME280;68734;50.452;11.636;2023-05-07T12:51:20;95873.56;;;13.88;63.75
79285;BME280;68734;50.452;11.636;2023-05-07T12:53:45;95871.97;;;13.46;64.76
79285;BME280;68734;50.452;11.636;2023-05-07T12:56:11;95881.47;;;13.59;64.68
79285;BME280;68734;50.452;11.636;2023-05-07T12:58:36;95867.63;;;13.50;64.50
79285;BME280;68734;50.452;11.636;2023-05-07T13:01:06;95858.69;;;13.40;65.23
79285;BME280;68734;50.452;11.636;2023-05-07T13:03:37;95859.19;;;13.47;64.84
79285;BME280;68734;50.452;11.636;2023-05-07T13:06:05;95869.78;;;13.48;64.49
79285;BME280;68734;50.452;11.636;2023-05-07T13:08:36;95863.03;;;13.46;64.85
79285;BME280;68734;50.452;11.636;2023-05-07T13:11:03;95877.13;;;13.58;64.11
79285;BME280;68734;50.452;11.636;2023-05-07T13:13:34;95868.44;;;13.66;64.08
79285;BME280;68734;50.452;11.636;2023-05-07T13:16:00;95874.69;;;13.87;64.30
79285;BME280;68734;50.452;11.636;2023-05-07T13:18:26;95868.41;;;14.07;63.80
79285;BME280;68734;50.452;11.636;2023-05-07T13:20:53;95875.22;;;13.64;63.71
79285;BME280;68734;50.452;11.636;2023-05-07T13:23:18;95880.94;;;13.77;62.93
79285;BME280;68734;50.452;11.636;2023-05-07T13:25:43;95871.69;;;13.68;63.45
79285;BME280;68734;50.452;11.636;2023-05-07T13:28:09;95868.97;;;13.84;63.38